sensor_id;sensor_type;location;lat;lon;timestamp;P1;durP1;ratioP1;P2;durP2;ratioP2
60665;SDS011;59128;44.642;21.188;2023-03-15T00:02:01;5.40;;;4.78;;
60665;SDS011;59128;44.642;21.188;2023-03-15T00:04:27;6.30;;;5.03;;
60665;SDS011;59128;44.642;21.188;2023-03-15T00:06:54;6.13;;;4.75;;
60665;SDS011;59128;44.642;21.188;2023-03-15T00:09:20;6.30;;;4.80;;
60665;SDS011;59128;44.642;21.188;2023-03-15T00:11:46;5.60;;;4.57;;
60665;SDS011;59128;44.642;21.188;2023-03-15T00:14:16;7.05;;;5.32;;
60665;SDS011;59128;44.642;21.188;2023-03-15T00:16:42;6.65;;;5.95;;
60665;SDS011;59128;44.642;21.188;2023-03-15T00:19:09;9.18;;;6.78;;
60665;SDS011;59128;44.642;21.188;2023-03-15T00:21:35;7.95;;;5.88;;
60665;SDS011;59128;44.642;21.188;2023-03-15T00:24:01;10.02;;;7.57;;
60665;SDS011;59128;44.642;21.188;2023-03-15T00:26:27;9.05;;;6.45;;
60665;SDS011;59128;44.642;21.188;2023-03-15T00:28:54;11.73;;;8.43;;
60665;SDS011;59128;44.642;21.188;2023-03-15T00:31:21;12.88;;;9.48;;
60665;SDS011;59128;44.642;21.188;2023-03-15T00:33:47;15.00;;;10.13;;
60665;SDS011;59128;44.642;21.188;2023-03-15T00:36:14;11.05;;;8.45;;
60665;SDS011;59128;44.642;21.188;2023-03-15T00:38:40;15.95;;;11.25;;
60665;SDS011;59128;44.642;21.188;2023-03-15T00:41:17;13.38;;;9.20;;
60665;SDS011;59128;44.642;21.188;2023-03-15T00:43:43;13.13;;;9.65;;
60665;SDS011;59128;44.642;21.188;2023-03-15T00:46:10;16.67;;;11.35;;
60665;SDS011;59128;44.642;21.188;2023-03-15T00:48:36;15.48;;;10.85;;
60665;SDS011;59128;44.642;21.188;2023-03-15T00:51:07;16.60;;;11.60;;
60665;SDS011;59128;44.642;21.188;2023-03-15T00:53:33;19.07;;;11.83;;
60665;SDS011;59128;44.642;21.188;2023-03-15T00:56:06;22.13;;;13.53;;
60665;SDS011;59128;44.642;21.188;2023-03-15T00:58:34;18.75;;;12.40;;
60665;SDS011;59128;44.642;21.188;2023-03-15T01:01:03;20.58;;;13.43;;
60665;SDS011;59128;44.642;21.188;2023-03-15T01:03:29;17.63;;;11.38;;
60665;SDS011;59128;44.642;21.188;2023-03-15T01:05:55;17.52;;;10.80;;
60665;SDS011;59128;44.642;21.188;2023-03-15T01:08:21;20.63;;;12.15;;
60665;SDS011;59128;44.642;21.188;2023-03-15T01:10:48;23.90;;;14.50;;
60665;SDS011;59128;44.642;21.188;2023-03-15T01:13:14;9.68;;;7.13;;
60665;SDS011;59128;44.642;21.188;2023-03-15T01:15:44;21.38;;;13.27;;
60665;SDS011;59128;44.642;21.188;2023-03-15T01:18:10;17.75;;;10.52;;
60665;SDS011;59128;44.642;21.188;2023-03-15T01:20:36;20.20;;;12.85;;
60665;SDS011;59128;44.642;21.188;2023-03-15T01:23:02;20.58;;;13.60;;
60665;SDS011;59128;44.642;21.188;2023-03-15T01:25:28;13.07;;;8.93;;
60665;SDS011;59128;44.642;21.188;2023-03-15T01:27:53;15.15;;;10.07;;
60665;SDS011;59128;44.642;21.188;2023-03-15T01:30:19;13.82;;;9.20;;
60665;SDS011;59128;44.642;21.188;2023-03-15T01:32:45;14.23;;;9.50;;
60665;SDS011;59128;44.642;21.188;2023-03-15T01:35:11;27.73;;;16.27;;
60665;SDS011;59128;44.642;21.188;2023-03-15T01:37:37;15.07;;;9.48;;
60665;SDS011;59128;44.642;21.188;2023-03-15T01:40:04;29.10;;;16.70;;
60665;SDS011;59128;44.642;21.188;2023-03-15T01:42:30;15.45;;;10.15;;
60665;SDS011;59128;44.642;21.188;2023-03-15T01:44:58;32.67;;;18.90;;
60665;SDS011;59128;44.642;21.188;2023-03-15T01:47:24;26.77;;;15.30;;
60665;SDS011;59128;44.642;21.188;2023-03-15T01:49:51;16.77;;;10.77;;
60665;SDS011;59128;44.642;21.188;2023-03-15T01:52:20;29.40;;;17.30;;
60665;SDS011;59128;44.642;21.188;2023-03-15T01:57:17;22.35;;;14.27;;
60665;SDS011;59128;44.642;21.188;2023-03-15T01:59:51;31.90;;;18.50;;
60665;SDS011;59128;44.642;21.188;2023-03-15T02:02:19;31.83;;;19.30;;
60665;SDS011;59128;44.642;21.188;2023-03-15T02:04:51;33.67;;;21.23;;
60665;SDS011;59128;44.642;21.188;2023-03-15T02:07:19;30.05;;;17.67;;
60665;SDS011;59128;44.642;21.188;2023-03-15T02:09:49;32.08;;;21.25;;
60665;SDS011;59128;44.642;21.188;2023-03-15T02:12:16;28.45;;;17.98;;
60665;SDS011;59128;44.642;21.188;2023-03-15T02:14:43;26.10;;;16.92;;
60665;SDS011;59128;44.642;21.188;2023-03-15T02:17:09;21.80;;;14.27;;
60665;SDS011;59128;44.642;21.188;2023-03-15T02:22:14;26.45;;;17.23;;
60665;SDS011;59128;44.642;21.188;2023-03-15T02:24:48;16.83;;;11.82;;
60665;SDS011;59128;44.642;21.188;2023-03-15T02:27:19;28.58;;;19.05;;
60665;SDS011;59128;44.642;21.188;2023-03-15T02:29:46;19.27;;;13.65;;
60665;SDS011;59128;44.642;21.188;2023-03-15T02:32:12;18.50;;;13.10;;
60665;SDS011;59128;44.642;21.188;2023-03-15T02:34:38;17.30;;;12.70;;
60665;SDS011;59128;44.642;21.188;2023-03-15T02:37:04;15.52;;;11.73;;
60665;SDS011;59128;44.642;21.188;2023-03-15T02:39:30;12.63;;;10.05;;
60665;SDS011;59128;44.642;21.188;2023-03-15T02:41:57;14.80;;;12.40;;
60665;SDS011;59128;44.642;21.188;2023-03-15T02:44:30;16.98;;;13.30;;
60665;SDS011;59128;44.642;21.188;2023-03-15T02:46:58;13.35;;;8.80;;
60665;SDS011;59128;44.642;21.188;2023-03-15T02:49:26;11.68;;;8.77;;
60665;SDS011;59128;44.642;21.188;2023-03-15T02:51:53;11.33;;;9.03;;
60665;SDS011;59128;44.642;21.188;2023-03-15T02:54:19;13.45;;;10.60;;
60665;SDS011;59128;44.642;21.188;2023-03-15T02:56:45;13.07;;;10.07;;
60665;SDS011;59128;44.642;21.188;2023-03-15T02:59:11;12.52;;;9.52;;
60665;SDS011;59128;44.642;21.188;2023-03-15T03:01:37;13.70;;;10.50;;
60665;SDS011;59128;44.642;21.188;2023-03-15T03:04:03;10.10;;;8.55;;
60665;SDS011;59128;44.642;21.188;2023-03-15T03:06:29;14.98;;;10.55;;
60665;SDS011;59128;44.642;21.188;2023-03-15T03:08:55;13.07;;;9.68;;
60665;SDS011;59128;44.642;21.188;2023-03-15T03:11:21;8.48;;;7.50;;
60665;SDS011;59128;44.642;21.188;2023-03-15T03:13:47;9.45;;;7.22;;
60665;SDS011;59128;44.642;21.188;2023-03-15T03:16:13;8.07;;;5.85;;
60665;SDS011;59128;44.642;21.188;2023-03-15T03:18:39;9.50;;;5.93;;
60665;SDS011;59128;44.642;21.188;2023-03-15T03:21:06;5.80;;;4.47;;
60665;SDS011;59128;44.642;21.188;2023-03-15T03:23:33;7.55;;;4.68;;
60665;SDS011;59128;44.642;21.188;2023-03-15T03:25:59;6.30;;;4.60;;
60665;SDS011;59128;44.642;21.188;2023-03-15T03:28:26;6.50;;;5.10;;
60665;SDS011;59128;44.642;21.188;2023-03-15T03:30:53;8.48;;;6.53;;
60665;SDS011;59128;44.642;21.188;2023-03-15T03:33:19;9.77;;;6.82;;
60665;SDS011;59128;44.642;21.188;2023-03-15T03:35:45;11.65;;;8.43;;
60665;SDS011;59128;44.642;21.188;2023-03-15T03:38:12;15.77;;;11.23;;
60665;SDS011;59128;44.642;21.188;2023-03-15T03:40:38;11.85;;;9.10;;
60665;SDS011;59128;44.642;21.188;2023-03-15T03:43:04;11.23;;;7.85;;
60665;SDS011;59128;44.642;21.188;2023-03-15T03:45:31;11.57;;;9.05;;
60665;SDS011;59128;44.642;21.188;2023-03-15T03:47:57;12.93;;;9.85;;
60665;SDS011;59128;44.642;21.188;2023-03-15T03:50:23;12.18;;;10.43;;
60665;SDS011;59128;44.642;21.188;2023-03-15T03:52:51;6.63;;;5.55;;
60665;SDS011;59128;44.642;21.188;2023-03-15T03:55:17;8.20;;;5.72;;
60665;SDS011;59128;44.642;21.188;2023-03-15T03:57:42;12.63;;;8.80;;
60665;SDS011;59128;44.642;21.188;2023-03-15T04:00:10;10.98;;;7.70;;
60665;SDS011;59128;44.642;21.188;2023-03-15T04:02:38;10.18;;;7.60;;
60665;SDS011;59128;44.642;21.188;2023-03-15T04:05:07;8.35;;;6.57;;
60665;SDS011;59128;44.642;21.188;2023-03-15T04:07:33;6.13;;;4.90;;
60665;SDS011;59128;44.642;21.188;2023-03-15T04:09:59;7.30;;;4.70;;
60665;SDS011;59128;44.642;21.188;2023-03-15T04:12:26;6.97;;;4.70;;
60665;SDS011;59128;44.642;21.188;2023-03-15T04:14:52;10.25;;;6.43;;
60665;SDS011;59128;44.642;21.188;2023-03-15T04:17:18;10.35;;;7.22;;
60665;SDS011;59128;44.642;21.188;2023-03-15T04:19:44;10.70;;;7.82;;
60665;SDS011;59128;44.642;21.188;2023-03-15T04:22:13;10.60;;;8.10;;
60665;SDS011;59128;44.642;21.188;2023-03-15T04:24:42;10.70;;;7.75;;
60665;SDS011;59128;44.642;21.188;2023-03-15T04:27:08;10.77;;;8.13;;
60665;SDS011;59128;44.642;21.188;2023-03-15T04:29:38;11.55;;;8.50;;
60665;SDS011;59128;44.642;21.188;2023-03-15T04:32:06;10.73;;;7.82;;
60665;SDS011;59128;44.642;21.188;2023-03-15T04:34:32;10.27;;;7.13;;
60665;SDS011;59128;44.642;21.188;2023-03-15T04:37:03;11.40;;;8.10;;
60665;SDS011;59128;44.642;21.188;2023-03-15T04:39:29;13.13;;;9.73;;
60665;SDS011;59128;44.642;21.188;2023-03-15T04:41:55;16.00;;;10.75;;
60665;SDS011;59128;44.642;21.188;2023-03-15T04:44:21;15.40;;;11.27;;
60665;SDS011;59128;44.642;21.188;2023-03-15T04:46:50;16.05;;;11.77;;
60665;SDS011;59128;44.642;21.188;2023-03-15T04:49:16;17.50;;;11.83;;
60665;SDS011;59128;44.642;21.188;2023-03-15T04:51:42;16.48;;;11.25;;
60665;SDS011;59128;44.642;21.188;2023-03-15T04:54:08;20.27;;;13.90;;
60665;SDS011;59128;44.642;21.188;2023-03-15T04:56:34;22.88;;;15.45;;
60665;SDS011;59128;44.642;21.188;2023-03-15T04:59:01;19.77;;;14.48;;
60665;SDS011;59128;44.642;21.188;2023-03-15T05:01:28;24.33;;;17.50;;
60665;SDS011;59128;44.642;21.188;2023-03-15T05:03:55;34.90;;;23.10;;
60665;SDS011;59128;44.642;21.188;2023-03-15T05:06:21;45.65;;;28.38;;
60665;SDS011;59128;44.642;21.188;2023-03-15T05:08:47;59.28;;;37.65;;
60665;SDS011;59128;44.642;21.188;2023-03-15T05:11:13;51.13;;;31.88;;
60665;SDS011;59128;44.642;21.188;2023-03-15T05:13:39;42.33;;;25.70;;
60665;SDS011;59128;44.642;21.188;2023-03-15T05:16:05;57.38;;;37.60;;
60665;SDS011;59128;44.642;21.188;2023-03-15T05:18:31;47.97;;;30.10;;
60665;SDS011;59128;44.642;21.188;2023-03-15T05:20:57;47.55;;;31.08;;
60665;SDS011;59128;44.642;21.188;2023-03-15T05:23:23;43.17;;;27.13;;
60665;SDS011;59128;44.642;21.188;2023-03-15T05:25:50;14.20;;;9.93;;
60665;SDS011;59128;44.642;21.188;2023-03-15T05:28:18;12.07;;;8.10;;
60665;SDS011;59128;44.642;21.188;2023-03-15T05:30:44;9.10;;;7.10;;
60665;SDS011;59128;44.642;21.188;2023-03-15T05:33:10;10.48;;;7.57;;
60665;SDS011;59128;44.642;21.188;2023-03-15T05:35:36;9.35;;;6.30;;
60665;SDS011;59128;44.642;21.188;2023-03-15T05:38:02;9.43;;;6.00;;
60665;SDS011;59128;44.642;21.188;2023-03-15T05:40:28;7.93;;;6.03;;
60665;SDS011;59128;44.642;21.188;2023-03-15T05:42:55;8.05;;;5.68;;
60665;SDS011;59128;44.642;21.188;2023-03-15T05:45:21;8.45;;;6.18;;
60665;SDS011;59128;44.642;21.188;2023-03-15T05:47:47;12.13;;;9.90;;
60665;SDS011;59128;44.642;21.188;2023-03-15T05:50:13;28.40;;;25.50;;
60665;SDS011;59128;44.642;21.188;2023-03-15T05:52:39;14.50;;;10.60;;
60665;SDS011;59128;44.642;21.188;2023-03-15T05:55:05;13.93;;;9.52;;
60665;SDS011;59128;44.642;21.188;2023-03-15T05:57:31;16.47;;;10.90;;
60665;SDS011;59128;44.642;21.188;2023-03-15T05:59:57;18.25;;;13.20;;
60665;SDS011;59128;44.642;21.188;2023-03-15T06:02:23;23.35;;;17.33;;
60665;SDS011;59128;44.642;21.188;2023-03-15T06:04:49;15.85;;;11.32;;
60665;SDS011;59128;44.642;21.188;2023-03-15T06:07:15;15.97;;;10.33;;
60665;SDS011;59128;44.642;21.188;2023-03-15T06:09:41;16.40;;;11.50;;
60665;SDS011;59128;44.642;21.188;2023-03-15T06:12:07;15.35;;;10.45;;
60665;SDS011;59128;44.642;21.188;2023-03-15T06:14:33;22.33;;;15.05;;
60665;SDS011;59128;44.642;21.188;2023-03-15T06:16:59;26.00;;;16.37;;
60665;SDS011;59128;44.642;21.188;2023-03-15T06:19:25;34.53;;;17.40;;
60665;SDS011;59128;44.642;21.188;2023-03-15T06:21:51;26.90;;;15.13;;
60665;SDS011;59128;44.642;21.188;2023-03-15T06:24:17;27.02;;;17.80;;
60665;SDS011;59128;44.642;21.188;2023-03-15T06:26:43;23.60;;;16.17;;
60665;SDS011;59128;44.642;21.188;2023-03-15T06:29:09;18.58;;;14.13;;
60665;SDS011;59128;44.642;21.188;2023-03-15T06:31:35;18.23;;;13.05;;
60665;SDS011;59128;44.642;21.188;2023-03-15T06:34:01;20.90;;;14.02;;
60665;SDS011;59128;44.642;21.188;2023-03-15T06:36:27;23.67;;;14.10;;
60665;SDS011;59128;44.642;21.188;2023-03-15T06:38:54;21.13;;;14.32;;
60665;SDS011;59128;44.642;21.188;2023-03-15T06:41:20;28.77;;;16.77;;
60665;SDS011;59128;44.642;21.188;2023-03-15T06:43:46;32.83;;;18.20;;
60665;SDS011;59128;44.642;21.188;2023-03-15T06:46:12;27.05;;;18.02;;
60665;SDS011;59128;44.642;21.188;2023-03-15T06:48:38;33.72;;;19.38;;
60665;SDS011;59128;44.642;21.188;2023-03-15T06:51:04;26.10;;;17.23;;
60665;SDS011;59128;44.642;21.188;2023-03-15T06:53:30;25.40;;;16.80;;
60665;SDS011;59128;44.642;21.188;2023-03-15T06:55:56;23.45;;;16.27;;
60665;SDS011;59128;44.642;21.188;2023-03-15T06:58:22;16.42;;;12.40;;
60665;SDS011;59128;44.642;21.188;2023-03-15T07:00:48;20.00;;;14.48;;
60665;SDS011;59128;44.642;21.188;2023-03-15T07:03:15;21.98;;;16.10;;
60665;SDS011;59128;44.642;21.188;2023-03-15T07:05:41;19.50;;;12.95;;
60665;SDS011;59128;44.642;21.188;2023-03-15T07:08:07;21.17;;;17.38;;
60665;SDS011;59128;44.642;21.188;2023-03-15T07:10:33;19.20;;;11.27;;
60665;SDS011;59128;44.642;21.188;2023-03-15T07:12:59;30.60;;;22.67;;
60665;SDS011;59128;44.642;21.188;2023-03-15T07:15:25;26.98;;;19.40;;
60665;SDS011;59128;44.642;21.188;2023-03-15T07:17:52;21.67;;;14.07;;
60665;SDS011;59128;44.642;21.188;2023-03-15T07:20:18;27.27;;;19.23;;
60665;SDS011;59128;44.642;21.188;2023-03-15T07:22:44;18.85;;;14.38;;
60665;SDS011;59128;44.642;21.188;2023-03-15T07:25:10;16.17;;;12.23;;
60665;SDS011;59128;44.642;21.188;2023-03-15T07:27:36;16.75;;;12.57;;
60665;SDS011;59128;44.642;21.188;2023-03-15T07:30:02;20.83;;;14.60;;
60665;SDS011;59128;44.642;21.188;2023-03-15T07:32:29;19.08;;;13.80;;
60665;SDS011;59128;44.642;21.188;2023-03-15T07:34:55;15.90;;;13.02;;
60665;SDS011;59128;44.642;21.188;2023-03-15T07:37:24;21.23;;;14.80;;
60665;SDS011;59128;44.642;21.188;2023-03-15T07:39:50;22.17;;;16.50;;
60665;SDS011;59128;44.642;21.188;2023-03-15T07:42:16;19.45;;;14.70;;
60665;SDS011;59128;44.642;21.188;2023-03-15T07:44:42;15.77;;;12.02;;
60665;SDS011;59128;44.642;21.188;2023-03-15T07:47:08;17.48;;;11.80;;
60665;SDS011;59128;44.642;21.188;2023-03-15T07:49:34;15.38;;;11.50;;
60665;SDS011;59128;44.642;21.188;2023-03-15T07:52:00;14.07;;;10.40;;
60665;SDS011;59128;44.642;21.188;2023-03-15T07:54:29;14.95;;;11.05;;
60665;SDS011;59128;44.642;21.188;2023-03-15T07:56:55;15.15;;;11.13;;
60665;SDS011;59128;44.642;21.188;2023-03-15T07:59:21;14.77;;;11.23;;
60665;SDS011;59128;44.642;21.188;2023-03-15T08:01:47;14.63;;;10.52;;
60665;SDS011;59128;44.642;21.188;2023-03-15T08:04:13;14.05;;;9.63;;
60665;SDS011;59128;44.642;21.188;2023-03-15T08:06:40;13.43;;;10.57;;
60665;SDS011;59128;44.642;21.188;2023-03-15T08:09:06;15.33;;;11.47;;
60665;SDS011;59128;44.642;21.188;2023-03-15T08:11:32;15.90;;;10.90;;
60665;SDS011;59128;44.642;21.188;2023-03-15T08:13:58;12.85;;;10.23;;
60665;SDS011;59128;44.642;21.188;2023-03-15T08:16:25;13.85;;;10.52;;
60665;SDS011;59128;44.642;21.188;2023-03-15T08:18:51;13.75;;;10.80;;
60665;SDS011;59128;44.642;21.188;2023-03-15T08:21:17;13.23;;;11.48;;
60665;SDS011;59128;44.642;21.188;2023-03-15T08:23:43;13.85;;;10.65;;
60665;SDS011;59128;44.642;21.188;2023-03-15T08:26:09;15.45;;;11.88;;
60665;SDS011;59128;44.642;21.188;2023-03-15T08:28:35;12.18;;;10.30;;
60665;SDS011;59128;44.642;21.188;2023-03-15T08:31:04;14.50;;;10.75;;
60665;SDS011;59128;44.642;21.188;2023-03-15T08:33:30;16.10;;;12.38;;
60665;SDS011;59128;44.642;21.188;2023-03-15T08:35:56;15.35;;;11.60;;
60665;SDS011;59128;44.642;21.188;2023-03-15T08:38:22;12.85;;;10.13;;
60665;SDS011;59128;44.642;21.188;2023-03-15T08:40:54;14.52;;;10.35;;
60665;SDS011;59128;44.642;21.188;2023-03-15T08:43:20;14.68;;;12.68;;
60665;SDS011;59128;44.642;21.188;2023-03-15T08:45:47;13.77;;;10.20;;
60665;SDS011;59128;44.642;21.188;2023-03-15T08:48:13;11.65;;;9.52;;
60665;SDS011;59128;44.642;21.188;2023-03-15T08:50:39;12.43;;;9.38;;
60665;SDS011;59128;44.642;21.188;2023-03-15T08:53:05;12.63;;;9.43;;
60665;SDS011;59128;44.642;21.188;2023-03-15T08:55:32;13.38;;;10.52;;
60665;SDS011;59128;44.642;21.188;2023-03-15T08:57:58;12.85;;;9.00;;
60665;SDS011;59128;44.642;21.188;2023-03-15T09:00:25;11.77;;;9.18;;
60665;SDS011;59128;44.642;21.188;2023-03-15T09:02:52;16.42;;;13.15;;
60665;SDS011;59128;44.642;21.188;2023-03-15T09:05:19;15.18;;;10.63;;
60665;SDS011;59128;44.642;21.188;2023-03-15T09:07:46;12.18;;;8.65;;
60665;SDS011;59128;44.642;21.188;2023-03-15T09:10:13;14.52;;;10.02;;
60665;SDS011;59128;44.642;21.188;2023-03-15T09:12:40;10.68;;;8.82;;
60665;SDS011;59128;44.642;21.188;2023-03-15T09:15:06;13.10;;;9.88;;
60665;SDS011;59128;44.642;21.188;2023-03-15T09:17:32;11.60;;;9.13;;
60665;SDS011;59128;44.642;21.188;2023-03-15T09:19:58;11.48;;;9.07;;
60665;SDS011;59128;44.642;21.188;2023-03-15T09:22:24;12.50;;;9.07;;
60665;SDS011;59128;44.642;21.188;2023-03-15T09:24:50;11.20;;;8.27;;
60665;SDS011;59128;44.642;21.188;2023-03-15T09:27:17;11.38;;;8.73;;
60665;SDS011;59128;44.642;21.188;2023-03-15T09:29:43;11.60;;;9.27;;
60665;SDS011;59128;44.642;21.188;2023-03-15T09:32:09;13.00;;;9.43;;
60665;SDS011;59128;44.642;21.188;2023-03-15T09:34:35;11.65;;;9.20;;
60665;SDS011;59128;44.642;21.188;2023-03-15T09:37:02;14.77;;;9.63;;
60665;SDS011;59128;44.642;21.188;2023-03-15T09:39:29;10.75;;;9.35;;
60665;SDS011;59128;44.642;21.188;2023-03-15T09:41:57;10.65;;;8.80;;
60665;SDS011;59128;44.642;21.188;2023-03-15T09:50:00;12.55;;;9.88;;
60665;SDS011;59128;44.642;21.188;2023-03-15T09:54:49;13.45;;;10.88;;
60665;SDS011;59128;44.642;21.188;2023-03-15T09:57:22;17.98;;;12.82;;
60665;SDS011;59128;44.642;21.188;2023-03-15T09:59:50;17.95;;;13.15;;
60665;SDS011;59128;44.642;21.188;2023-03-15T10:02:18;15.63;;;11.30;;
60665;SDS011;59128;44.642;21.188;2023-03-15T10:04:46;19.40;;;14.23;;
60665;SDS011;59128;44.642;21.188;2023-03-15T10:07:14;18.33;;;13.23;;
60665;SDS011;59128;44.642;21.188;2023-03-15T10:09:40;15.68;;;11.63;;
60665;SDS011;59128;44.642;21.188;2023-03-15T10:12:11;17.08;;;13.00;;
60665;SDS011;59128;44.642;21.188;2023-03-15T10:17:10;17.85;;;13.20;;
60665;SDS011;59128;44.642;21.188;2023-03-15T10:29:40;30.25;;;21.08;;
60665;SDS011;59128;44.642;21.188;2023-03-15T10:32:09;18.88;;;13.65;;
60665;SDS011;59128;44.642;21.188;2023-03-15T10:34:41;15.95;;;12.93;;
60665;SDS011;59128;44.642;21.188;2023-03-15T10:37:08;14.50;;;12.85;;
60665;SDS011;59128;44.642;21.188;2023-03-15T10:39:34;21.98;;;16.00;;
60665;SDS011;59128;44.642;21.188;2023-03-15T10:42:00;17.38;;;12.85;;
60665;SDS011;59128;44.642;21.188;2023-03-15T10:44:26;24.67;;;18.02;;
60665;SDS011;59128;44.642;21.188;2023-03-15T10:47:06;16.20;;;13.07;;
60665;SDS011;59128;44.642;21.188;2023-03-15T10:49:37;26.33;;;18.42;;
60665;SDS011;59128;44.642;21.188;2023-03-15T10:52:04;14.50;;;12.60;;
60665;SDS011;59128;44.642;21.188;2023-03-15T10:54:31;17.10;;;14.27;;
60665;SDS011;59128;44.642;21.188;2023-03-15T10:59:31;19.52;;;13.35;;
60665;SDS011;59128;44.642;21.188;2023-03-15T11:04:42;18.67;;;13.98;;
60665;SDS011;59128;44.642;21.188;2023-03-15T11:07:09;17.58;;;13.75;;
60665;SDS011;59128;44.642;21.188;2023-03-15T11:09:38;18.00;;;13.15;;
60665;SDS011;59128;44.642;21.188;2023-03-15T11:12:06;20.48;;;14.75;;
60665;SDS011;59128;44.642;21.188;2023-03-15T11:14:33;20.23;;;14.60;;
60665;SDS011;59128;44.642;21.188;2023-03-15T11:17:00;16.42;;;14.15;;
60665;SDS011;59128;44.642;21.188;2023-03-15T11:19:27;15.30;;;13.68;;
60665;SDS011;59128;44.642;21.188;2023-03-15T11:21:54;21.80;;;16.35;;
60665;SDS011;59128;44.642;21.188;2023-03-15T11:24:25;17.50;;;13.77;;
60665;SDS011;59128;44.642;21.188;2023-03-15T11:26:52;16.50;;;14.70;;
60665;SDS011;59128;44.642;21.188;2023-03-15T11:29:29;18.73;;;15.00;;
60665;SDS011;59128;44.642;21.188;2023-03-15T11:31:57;20.75;;;15.77;;
60665;SDS011;59128;44.642;21.188;2023-03-15T11:36:51;20.98;;;15.15;;
60665;SDS011;59128;44.642;21.188;2023-03-15T11:39:21;20.35;;;15.18;;
60665;SDS011;59128;44.642;21.188;2023-03-15T11:41:50;18.33;;;14.73;;
60665;SDS011;59128;44.642;21.188;2023-03-15T11:44:26;23.90;;;15.25;;
60665;SDS011;59128;44.642;21.188;2023-03-15T11:47:00;18.13;;;13.48;;
60665;SDS011;59128;44.642;21.188;2023-03-15T11:51:54;11.82;;;10.13;;
60665;SDS011;59128;44.642;21.188;2023-03-15T11:54:20;10.35;;;9.25;;
60665;SDS011;59128;44.642;21.188;2023-03-15T11:56:52;8.25;;;7.45;;
60665;SDS011;59128;44.642;21.188;2023-03-15T11:59:20;7.10;;;6.40;;
60665;SDS011;59128;44.642;21.188;2023-03-15T12:01:50;7.82;;;6.72;;
60665;SDS011;59128;44.642;21.188;2023-03-15T12:06:53;6.78;;;6.03;;
60665;SDS011;59128;44.642;21.188;2023-03-15T12:12:01;7.47;;;6.70;;
60665;SDS011;59128;44.642;21.188;2023-03-15T12:22:11;6.72;;;5.57;;
60665;SDS011;59128;44.642;21.188;2023-03-15T12:24:38;6.17;;;5.57;;
60665;SDS011;59128;44.642;21.188;2023-03-15T12:27:05;6.88;;;5.60;;
60665;SDS011;59128;44.642;21.188;2023-03-15T12:29:39;6.82;;;6.22;;
60665;SDS011;59128;44.642;21.188;2023-03-15T12:32:15;7.57;;;6.18;;
60665;SDS011;59128;44.642;21.188;2023-03-15T12:53:13;8.80;;;8.10;;
60665;SDS011;59128;44.642;21.188;2023-03-15T12:55:40;8.63;;;7.82;;
60665;SDS011;59128;44.642;21.188;2023-03-15T12:58:08;10.05;;;8.43;;
60665;SDS011;59128;44.642;21.188;2023-03-15T13:00:35;8.75;;;7.95;;
60665;SDS011;59128;44.642;21.188;2023-03-15T13:03:04;8.90;;;8.20;;
60665;SDS011;59128;44.642;21.188;2023-03-15T13:08:24;8.80;;;8.10;;
60665;SDS011;59128;44.642;21.188;2023-03-15T13:16:07;10.18;;;9.32;;
60665;SDS011;59128;44.642;21.188;2023-03-15T13:23:50;10.38;;;9.48;;
60665;SDS011;59128;44.642;21.188;2023-03-15T13:29:11;10.80;;;9.90;;
60665;SDS011;59128;44.642;21.188;2023-03-15T13:31:39;11.70;;;10.65;;
60665;SDS011;59128;44.642;21.188;2023-03-15T13:34:20;12.35;;;11.18;;
60665;SDS011;59128;44.642;21.188;2023-03-15T13:36:52;11.77;;;10.77;;
60665;SDS011;59128;44.642;21.188;2023-03-15T13:39:22;11.45;;;10.45;;
60665;SDS011;59128;44.642;21.188;2023-03-15T13:41:59;11.50;;;10.60;;
60665;SDS011;59128;44.642;21.188;2023-03-15T13:44:26;11.50;;;10.60;;
60665;SDS011;59128;44.642;21.188;2023-03-15T13:46:52;12.43;;;11.15;;
60665;SDS011;59128;44.642;21.188;2023-03-15T13:49:19;10.52;;;9.57;;
60665;SDS011;59128;44.642;21.188;2023-03-15T13:51:45;12.32;;;10.60;;
60665;SDS011;59128;44.642;21.188;2023-03-15T13:54:14;12.00;;;10.70;;
60665;SDS011;59128;44.642;21.188;2023-03-15T13:59:26;11.85;;;10.57;;
60665;SDS011;59128;44.642;21.188;2023-03-15T14:01:56;11.43;;;10.00;;
60665;SDS011;59128;44.642;21.188;2023-03-15T14:04:22;10.55;;;9.45;;
60665;SDS011;59128;44.642;21.188;2023-03-15T14:06:49;12.75;;;10.48;;
60665;SDS011;59128;44.642;21.188;2023-03-15T14:09:17;11.85;;;10.65;;
60665;SDS011;59128;44.642;21.188;2023-03-15T14:11:44;11.77;;;10.10;;
60665;SDS011;59128;44.642;21.188;2023-03-15T14:14:28;11.60;;;10.50;;
60665;SDS011;59128;44.642;21.188;2023-03-15T14:16:56;13.20;;;11.82;;
60665;SDS011;59128;44.642;21.188;2023-03-15T14:19:23;12.20;;;10.90;;
60665;SDS011;59128;44.642;21.188;2023-03-15T14:22:31;12.90;;;11.52;;
60665;SDS011;59128;44.642;21.188;2023-03-15T14:24:40;11.05;;;10.05;;
60665;SDS011;59128;44.642;21.188;2023-03-15T14:27:07;14.45;;;13.00;;
60665;SDS011;59128;44.642;21.188;2023-03-15T14:29:37;15.40;;;13.82;;
60665;SDS011;59128;44.642;21.188;2023-03-15T14:32:05;12.45;;;11.27;;
60665;SDS011;59128;44.642;21.188;2023-03-15T14:36:58;13.80;;;12.40;;
60665;SDS011;59128;44.642;21.188;2023-03-15T14:39:46;12.48;;;11.27;;
60665;SDS011;59128;44.642;21.188;2023-03-15T14:42:12;14.18;;;12.70;;
60665;SDS011;59128;44.642;21.188;2023-03-15T14:44:38;14.32;;;12.93;;
60665;SDS011;59128;44.642;21.188;2023-03-15T14:47:11;16.00;;;14.30;;
60665;SDS011;59128;44.642;21.188;2023-03-15T14:49:39;16.67;;;14.90;;
60665;SDS011;59128;44.642;21.188;2023-03-15T14:52:05;23.02;;;19.00;;
60665;SDS011;59128;44.642;21.188;2023-03-15T14:54:31;15.95;;;14.25;;
60665;SDS011;59128;44.642;21.188;2023-03-15T14:56:58;15.90;;;14.30;;
60665;SDS011;59128;44.642;21.188;2023-03-15T14:59:24;14.05;;;12.65;;
60665;SDS011;59128;44.642;21.188;2023-03-15T15:01:55;14.18;;;12.77;;
60665;SDS011;59128;44.642;21.188;2023-03-15T15:04:22;14.07;;;12.68;;
60665;SDS011;59128;44.642;21.188;2023-03-15T15:06:48;15.40;;;13.95;;
60665;SDS011;59128;44.642;21.188;2023-03-15T15:09:15;13.32;;;12.02;;
60665;SDS011;59128;44.642;21.188;2023-03-15T15:11:41;13.20;;;11.80;;
60665;SDS011;59128;44.642;21.188;2023-03-15T15:14:10;13.20;;;11.83;;
60665;SDS011;59128;44.642;21.188;2023-03-15T15:16:37;13.02;;;11.70;;
60665;SDS011;59128;44.642;21.188;2023-03-15T15:19:04;13.60;;;12.20;;
60665;SDS011;59128;44.642;21.188;2023-03-15T15:21:30;12.88;;;11.60;;
60665;SDS011;59128;44.642;21.188;2023-03-15T15:23:56;13.47;;;12.17;;
60665;SDS011;59128;44.642;21.188;2023-03-15T15:26:23;13.00;;;11.70;;
60665;SDS011;59128;44.642;21.188;2023-03-15T15:28:51;13.05;;;11.43;;
60665;SDS011;59128;44.642;21.188;2023-03-15T15:31:20;11.13;;;9.90;;
60665;SDS011;59128;44.642;21.188;2023-03-15T15:33:47;10.70;;;9.60;;
60665;SDS011;59128;44.642;21.188;2023-03-15T15:36:15;10.23;;;9.20;;
60665;SDS011;59128;44.642;21.188;2023-03-15T15:38:43;9.50;;;8.60;;
60665;SDS011;59128;44.642;21.188;2023-03-15T15:41:26;8.90;;;8.02;;
60665;SDS011;59128;44.642;21.188;2023-03-15T15:43:52;8.18;;;7.38;;
60665;SDS011;59128;44.642;21.188;2023-03-15T15:46:18;8.15;;;7.35;;